RJOA/HIJ METAR and TAF weather

Enter ICAO airport designator
Station Type Date Time Source
RJOA METAR 2020/06/05 13:00 UTC NOAA

RJOA 051300Z 31001KT CAVOK 23/20 Q1009


Station Type Date Time Source
RJOA Decoded METAR 2020/06/05 13:00 UTC NOAA

Hiroshima Airport, Japan (RJOA) 34-26N 132-55E 334M
Jun 05, 2020 - 09:00 AM EDT / 2020.06.05 1300 UTC
Wind: from the NW (310 degrees) at 1 MPH (1 KT):0
Visibility: greater than 7 mile(s):0
Temperature: 73 F (23 C)
Dew Point: 68 F (20 C)
Relative Humidity: 83%
Pressure (altimeter): 29.80 in. Hg (1009 hPa)
ob: RJOA 051300Z 31001KT CAVOK 23/20 Q1009
cycle: 13

Station Type Date Time Source
RJOA TAF 2020/06/05 12:30 UTC NOAA

TAF RJOA 051106Z 0512/0618 32004KT CAVOK
BECMG 0521/0523 08006KT

Example: see airport list